createdAt,value
2022-10-28T00:00:41.140Z,7.97
2022-10-28T00:03:08.429Z,8.02
2022-10-28T00:05:35.783Z,8.18
2022-10-28T00:08:02.948Z,7.90
2022-10-28T00:10:30.183Z,9.15
2022-10-28T00:12:57.347Z,8.45
2022-10-28T00:15:24.570Z,8.63
2022-10-28T00:17:52.251Z,8.48
2022-10-28T00:20:19.745Z,8.35
2022-10-28T00:22:47.008Z,9.65
2022-10-28T00:25:14.579Z,8.93
2022-10-28T00:27:41.887Z,9.70
2022-10-28T00:30:09.111Z,9.93
2022-10-28T20:35:37.748Z,4.63
2022-10-28T20:38:04.955Z,3.13
2022-10-28T20:40:32.390Z,2.45
2022-10-28T20:42:59.765Z,3.08
2022-10-28T20:45:26.970Z,11.02
2022-10-28T20:47:54.207Z,29.42
2022-10-28T20:50:21.645Z,44.05
2022-10-28T20:52:48.895Z,31.10
2022-10-28T20:55:16.059Z,17.40
2022-10-28T20:57:43.348Z,9.05
2022-10-28T21:00:10.558Z,7.03
2022-10-28T21:02:37.976Z,6.10
2022-10-28T21:05:05.399Z,5.40
2022-10-28T21:07:32.822Z,4.43
2022-10-28T21:09:59.996Z,3.58
2022-10-28T21:12:27.293Z,4.03
2022-10-28T21:14:54.473Z,4.15
2022-10-28T21:17:21.764Z,9.05
2022-10-28T21:19:49.314Z,8.27
2022-10-28T21:22:17.783Z,8.35
2022-10-28T21:24:45.051Z,8.00
2022-10-28T21:27:21.520Z,7.35
2022-10-28T21:29:49.072Z,7.22
2022-10-28T21:32:19.675Z,6.90
2022-10-28T21:34:47.084Z,6.28
2022-10-28T21:37:14.294Z,5.18
2022-10-28T21:39:41.530Z,5.95
2022-10-28T21:42:08.841Z,4.50
2022-10-28T21:44:36.346Z,3.78
2022-10-28T21:47:03.597Z,4.53
2022-10-28T21:49:30.972Z,4.65
2022-10-28T21:51:58.384Z,3.83
2022-10-28T21:54:25.677Z,3.75
2022-10-28T21:56:52.881Z,4.55
2022-10-28T21:59:20.097Z,5.10
2022-10-28T22:01:47.612Z,3.45
2022-10-28T22:04:15.293Z,3.15
2022-10-28T22:06:42.546Z,3.85
2022-10-28T22:09:09.998Z,3.63
2022-10-28T22:11:37.260Z,3.42
2022-10-28T22:14:04.499Z,3.38
2022-10-28T22:16:31.728Z,3.47
2022-10-28T22:18:59.016Z,3.85
2022-10-28T22:21:26.361Z,5.38
2022-10-28T22:23:53.714Z,4.13
2022-10-28T22:26:20.940Z,3.88
2022-10-28T22:28:48.425Z,3.38
2022-10-28T22:31:15.690Z,3.55
2022-10-28T22:33:43.177Z,3.28
2022-10-28T22:36:10.506Z,4.00
2022-10-28T22:38:40.245Z,3.85
2022-10-28T22:41:07.568Z,4.05
2022-10-28T22:43:34.913Z,4.68
2022-10-28T22:46:02.188Z,5.38
2022-10-28T22:48:29.422Z,4.97
2022-10-28T22:50:56.607Z,4.10
2022-10-28T22:53:23.998Z,4.45
2022-10-28T22:55:51.371Z,6.10
2022-10-28T22:58:18.677Z,4.63
2022-10-28T23:00:45.876Z,4.55
2022-10-28T23:03:13.115Z,5.15
2022-10-28T23:05:40.314Z,4.75
2022-10-28T23:08:07.530Z,3.97
2022-10-28T23:10:34.789Z,4.30
2022-10-28T23:13:03.260Z,3.33
2022-10-28T23:15:30.474Z,2.78
2022-10-28T23:17:58.045Z,3.20
2022-10-28T23:20:25.436Z,3.65
2022-10-28T23:22:52.689Z,3.90
2022-10-28T23:25:19.921Z,4.47
2022-10-28T23:27:47.211Z,4.90
2022-10-28T23:30:14.518Z,4.22
2022-10-28T23:32:41.967Z,6.20
2022-10-28T23:35:09.278Z,11.95
2022-10-28T23:37:36.669Z,5.28
2022-10-28T23:40:03.980Z,6.03
2022-10-28T23:42:31.180Z,4.78
2022-10-28T23:44:58.413Z,4.60
2022-10-28T23:47:25.571Z,3.60
2022-10-28T23:49:53.081Z,3.55
2022-10-28T23:52:20.436Z,3.25
2022-10-28T23:54:47.705Z,2.90
2022-10-28T23:57:14.952Z,3.15
2022-10-28T23:59:42.287Z,3.67
